Startpagina
METAR-TAF:

METAR-TAF

Vliegvelden :

Vliegbasis Ramstein

Ramstein, Duitsland

breedte: 49-26N, lengte: 007-36E, hoogte: 238 m

Actueel weer

Dit bericht is 54 minuten geleden gemaakt, om 22:56 UTC
Wind 4 kt uit het noordnoordwesten
Temperatuur -3°C
Vochtigheid 74%
Druk 1003 hPa
Zicht 10 km of meer
Geheel bewolkt op 2200 ft

METAR: ETAR 232256Z 33004KT 9999 OVC022 M03/M07 A2961 RMK AO2A SLP045 T1031 410141033 $

Tijdstip: 00:50 (23:50 UTC)

Verwachting

Dit bericht is 1 uur en het 58 minuten geleden gemaakt, om 21:52 UTC
Verwachting geldig van 23 om 21 UTC tot 24 om 24 UTC
Wind 6 kt uit het noordoosten
Zicht: 8000 m
Gebroken wolken op 2000 ft
nevel
Wijzigt naar
van 24 om 03 UTC tot 24 om 04 UTC
Wind 6 kt uit het noordnoordoosten
Zicht 10 km of meer
Gebroken wolken op 2000 ft
Geheel bewolkt op 3000 ft

TAF: ETAR 232152Z 2321/2424 04006KT 8000 BR BKN020 610204 QNH2952INS BECMG 2403/2404 03006KT 9999 NSW BKN020 OVC030 620209 QNH2962INS TX00/2414Z TNM05/2406Z

Waarnemingen en weersverwachtingen van meer dan 4000 vliegvelden (METAR en TAF).

De beschikbare stations zijn de gele en rode punten op de kaart.

Ga met uw muis naar het station om de naam te zien.

Klik dan om waarnemingen en weersverwachtingen te zien.

kaart wijzigen: klik op de groene knoppen met een zwart kruis om in te zoomen, op de groene knop met een streepje om uit te zoomen of op de groene pijlen voor aangrenzende kaarten.


METAR-TAF: